The Forks Plt, Maine
Current Conditions -  °F | °C
As of 4:15 AM on Monday 24 Nov 2014 (Local Time) from KWVL Reporting Station
Overcast Overcast  
Wind Chill: 37°   Ceiling: 400
Heat Index: 37°   Visibility: 3mi
Dew Point: 36°   Wind: 3mph
Humidity: 93%   Direction: 10°N
Pressure: 30.01"   Gusts: NA
Location:  45.3915°N, 69.9186°W
Report Text: KWVL 240915Z 01003KT 3SM OVC004 03/02 A3001 RMK AO1
Loading
Personal Weather Stations






























Interactive Weather Map New forecast layout! Learn more

10-Day Weather Forecast

Advertisements
Track Severe Weather on mobile